Time;durP1;ratioP1;P1;durP2;ratioP2;P2;SDS_P1;SDS_P2;PMS_P1;PMS_P2;Temp;Humidity;BMP_temperature;BMP_pressure;BME280_temperature;BME280_humidity;BME280_pressure;Samples;Min_cycle;Max_cycle;Signal;HPM_P1;HPM_P2
2023/03/02 00:00:15;;;;;;;;;;;;;;;-3.87;73.99;101176.77;133700;1301;22511;-81
2023/03/02 00:03:17;;;;;;;;;;;;;;;-3.85;74.02;101178.42;133693;1301;23116;-81
2023/03/02 00:06:18;;;;;;;;;;;;;;;-3.85;74.05;101175.69;133717;1302;22498;-78
2023/03/02 00:09:18;;;;;;;;;;;;;;;-3.86;73.98;101178.65;133695;1304;22476;-81
2023/03/02 00:12:19;;;;;;;;;;;;;;;-3.89;73.89;101175.98;133703;1301;22565;-81
2023/03/02 00:15:19;;;;;;;;;;;;;;;-3.93;73.77;101174.70;133737;1302;22494;-81
2023/03/02 00:18:20;;;;;;;;;;;;;;;-3.94;73.77;101170.77;133695;1305;23284;-81
2023/03/02 00:21:20;;;;;;;;;;;;;;;-3.97;73.46;101174.67;133688;1308;23162;-81
2023/03/02 00:24:21;;;;;;;;;;;;;;;-3.98;73.78;101176.79;133678;1301;22512;-81
2023/03/02 00:27:22;;;;;;;;;;;;;;;-4.02;73.65;101174.13;133726;1300;22516;-81
2023/03/02 00:30:22;;;;;;;;;;;;;;;-4.03;73.94;101169.86;133735;1301;22508;-81
2023/03/02 00:33:23;;;;;;;;;;;;;;;-4.03;74.17;101167.08;133703;1303;22466;-81
2023/03/02 00:36:24;;;;;;;;;;;;;;;-4.05;73.88;101169.23;133560;1303;22539;-81
2023/03/02 00:39:24;;;;;;;;;;;;;;;-4.06;74.30;101167.69;133735;1301;22488;-81
2023/03/02 00:42:25;;;;;;;;;;;;;;;-4.04;74.22;101169.72;133719;1301;22525;-80
2023/03/02 00:45:25;;;;;;;;;;;;;;;-4.06;74.08;101168.37;133484;1303;23221;-82
2023/03/02 00:48:26;;;;;;;;;;;;;;;-4.09;73.86;101164.16;133705;1301;22542;-81
2023/03/02 00:51:26;;;;;;;;;;;;;;;-4.12;73.65;101163.38;133704;1308;22471;-81
2023/03/02 00:54:26;;;;;;;;;;;;;;;-4.16;73.65;101154.00;133719;1304;22475;-82
2023/03/02 00:57:27;;;;;;;;;;;;;;;-4.20;73.42;101153.80;133729;1300;22467;-81
2023/03/02 01:00:28;;;;;;;;;;;;;;;-4.21;73.49;101152.43;133784;1300;22520;-81
2023/03/02 01:03:31;;;;;;;;;;;;;;;-4.22;73.58;101151.24;133557;1303;23146;-81
2023/03/02 01:06:32;;;;;;;;;;;;;;;-4.22;73.65;101144.69;133722;1301;22571;-81
2023/03/02 01:09:32;;;;;;;;;;;;;;;-4.26;73.66;101135.83;133701;1305;22470;-80
2023/03/02 01:12:33;;;;;;;;;;;;;;;-4.31;73.73;101134.09;133699;1300;22486;-80
2023/03/02 01:15:34;;;;;;;;;;;;;;;-4.33;73.66;101132.25;133711;1301;22632;-81
2023/03/02 01:18:37;;;;;;;;;;;;;;;-4.37;73.41;101127.38;133532;1304;22667;-81
2023/03/02 01:21:38;;;;;;;;;;;;;;;-4.40;73.42;101126.06;133701;1308;22562;-81
2023/03/02 01:24:38;;;;;;;;;;;;;;;-4.42;73.56;101119.92;133512;1302;22488;-80
2023/03/02 01:27:38;;;;;;;;;;;;;;;-4.43;73.42;101115.45;133573;1306;25142;-80
2023/03/02 01:30:39;;;;;;;;;;;;;;;-4.48;73.56;101113.54;133656;1301;22536;-81
2023/03/02 01:33:40;;;;;;;;;;;;;;;-4.67;73.58;101107.86;133741;1301;22575;-81
2023/03/02 01:36:43;;;;;;;;;;;;;;;-4.80;74.02;101108.09;133709;1301;22486;-81
2023/03/02 01:39:43;;;;;;;;;;;;;;;-4.85;74.29;101107.90;133683;1301;22575;-80
2023/03/02 01:42:45;;;;;;;;;;;;;;;-4.88;74.30;101107.48;133732;1300;22533;-81
2023/03/02 01:45:53;;;;;;;;;;;;;;;-4.91;74.39;101106.70;133698;1301;22476;-79
2023/03/02 01:49:14;;;;;;;;;;;;;;;-4.91;74.73;101105.33;133417;1304;22531;-81
2023/03/02 01:52:23;;;;;;;;;;;;;;;-4.90;74.83;101109.95;133381;1304;23258;-80
2023/03/02 01:55:28;;;;;;;;;;;;;;;-4.86;75.00;101108.09;133712;1302;23128;-81
2023/03/02 01:58:31;;;;;;;;;;;;;;;-4.80;75.18;101099.65;133582;1303;22484;-81
2023/03/02 02:01:33;;;;;;;;;;;;;;;-4.78;75.06;101092.66;133698;1302;22474;-80
2023/03/02 02:04:36;;;;;;;;;;;;;;;-4.75;75.03;101090.85;133502;1304;22463;-80
2023/03/02 02:07:37;;;;;;;;;;;;;;;-4.72;74.93;101087.67;133698;1305;22542;-81
2023/03/02 02:10:38;;;;;;;;;;;;;;;-4.77;74.78;101088.48;133689;1300;22552;-81
2023/03/02 02:13:39;;;;;;;;;;;;;;;-4.87;74.78;101083.09;133567;1301;22518;-81
2023/03/02 02:16:40;;;;;;;;;;;;;;;-4.92;74.83;101080.67;133465;1303;22488;-79
2023/03/02 02:19:56;;;;;;;;;;;;;;;-4.95;75.00;101076.95;133638;1304;22488;-81
2023/03/02 02:23:12;;;;;;;;;;;;;;;-4.98;75.29;101076.69;133545;1301;22473;-81
2023/03/02 02:26:17;;;;;;;;;;;;;;;-4.97;75.22;101079.77;133693;1300;22499;-80
2023/03/02 02:29:21;;;;;;;;;;;;;;;-4.98;74.99;101077.89;133525;1302;22622;-81
2023/03/02 02:32:27;;;;;;;;;;;;;;;-4.99;74.97;101083.61;133632;1301;22555;-82
2023/03/02 02:35:30;;;;;;;;;;;;;;;-5.05;75.37;101081.01;133676;1308;23687;-81
2023/03/02 02:38:32;;;;;;;;;;;;;;;-5.24;75.52;101081.56;133517;1303;22530;-79
2023/03/02 02:41:34;;;;;;;;;;;;;;;-5.29;75.53;101081.70;133508;1301;22487;-80
2023/03/02 02:44:35;;;;;;;;;;;;;;;-5.27;75.51;101080.29;133674;1301;22468;-81
2023/03/02 02:47:36;;;;;;;;;;;;;;;-5.28;75.51;101076.83;133464;1301;22508;-81
2023/03/02 02:50:36;;;;;;;;;;;;;;;-5.27;75.75;101079.24;133706;1297;22532;-81
2023/03/02 02:53:42;;;;;;;;;;;;;;;-5.28;75.88;101078.73;133687;1300;22578;-81
2023/03/02 02:56:43;;;;;;;;;;;;;;;-5.29;75.92;101075.52;133508;1303;23218;-79
2023/03/02 02:59:46;;;;;;;;;;;;;;;-5.36;76.03;101067.56;133690;1307;22702;-81
2023/03/02 03:02:51;;;;;;;;;;;;;;;-5.41;76.04;101064.09;133691;1301;22494;-80
2023/03/02 03:05:51;;;;;;;;;;;;;;;-5.49;76.18;101061.55;133616;1304;22519;-81
2023/03/02 03:08:54;;;;;;;;;;;;;;;-5.56;76.25;101057.43;133676;1300;22590;-81
2023/03/02 03:12:15;;;;;;;;;;;;;;;-5.56;76.34;101060.19;133535;1304;22512;-81
2023/03/02 03:15:18;;;;;;;;;;;;;;;-5.51;76.26;101055.41;133638;1308;22496;-81
2023/03/02 03:18:21;;;;;;;;;;;;;;;-5.46;76.36;101060.95;133678;1300;22474;-80
2023/03/02 03:21:22;;;;;;;;;;;;;;;-5.42;76.29;101062.40;133699;1300;22472;-80
2023/03/02 03:24:23;;;;;;;;;;;;;;;-5.37;76.40;101062.79;133681;1300;23195;-81
2023/03/02 03:27:25;;;;;;;;;;;;;;;-5.33;76.35;101058.70;133719;1300;22476;-81
2023/03/02 03:30:25;;;;;;;;;;;;;;;-5.30;76.23;101058.08;133659;1301;23285;-78
2023/03/02 03:33:26;;;;;;;;;;;;;;;-5.27;76.05;101055.77;133643;1300;22486;-81
2023/03/02 03:36:28;;;;;;;;;;;;;;;-5.24;76.23;101054.84;133717;1300;22501;-81
2023/03/02 03:39:29;;;;;;;;;;;;;;;-5.23;76.07;101058.61;133697;1307;22484;-81
2023/03/02 03:42:30;;;;;;;;;;;;;;;-5.22;75.94;101059.95;133716;1300;22573;-81
2023/03/02 03:45:31;;;;;;;;;;;;;;;-5.22;75.76;101055.81;133498;1301;22461;-80
2023/03/02 03:48:32;;;;;;;;;;;;;;;-5.22;75.87;101060.62;133525;1300;23256;-81
2023/03/02 03:51:34;;;;;;;;;;;;;;;-5.22;75.59;101053.56;133599;1302;22480;-81
2023/03/02 03:54:34;;;;;;;;;;;;;;;-5.22;75.74;101051.50;133668;1300;22500;-81
2023/03/02 03:57:35;;;;;;;;;;;;;;;-5.20;75.65;101053.52;133617;1302;22468;-81
2023/03/02 04:00:35;;;;;;;;;;;;;;;-5.20;75.63;101049.04;133696;1300;22487;-80
2023/03/02 04:03:38;;;;;;;;;;;;;;;-5.23;75.54;101045.14;133507;1308;22490;-81
2023/03/02 04:06:39;;;;;;;;;;;;;;;-5.26;75.53;101043.34;133500;1301;22552;-80
2023/03/02 04:09:40;;;;;;;;;;;;;;;-5.26;75.79;101043.84;133730;1300;23254;-80
2023/03/02 04:12:43;;;;;;;;;;;;;;;-5.22;75.95;101038.90;133507;1300;22476;-81
2023/03/02 04:15:45;;;;;;;;;;;;;;;-5.21;75.94;101037.31;133537;1305;22526;-80
2023/03/02 04:18:46;;;;;;;;;;;;;;;-5.22;75.88;101040.27;133613;1307;22474;-81
2023/03/02 04:21:48;;;;;;;;;;;;;;;-5.28;75.89;101040.30;133676;1300;22516;-80
2023/03/02 04:24:50;;;;;;;;;;;;;;;-5.28;75.79;101037.19;133469;1303;22467;-82
2023/03/02 04:27:52;;;;;;;;;;;;;;;-5.30;75.61;101036.20;133415;1303;22491;-81
2023/03/02 04:30:53;;;;;;;;;;;;;;;-5.35;75.76;101036.52;133408;1303;22480;-80
2023/03/02 04:33:54;;;;;;;;;;;;;;;-5.36;76.07;101033.63;133444;1304;22653;-82
2023/03/02 04:36:54;;;;;;;;;;;;;;;-5.31;76.19;101029.86;133739;1300;22521;-81
2023/03/02 04:39:55;;;;;;;;;;;;;;;-5.27;76.34;101026.09;133673;1300;22493;-81
2023/03/02 04:42:55;;;;;;;;;;;;;;;-5.25;76.45;101026.73;133686;1300;23585;-83
2023/03/02 04:45:56;;;;;;;;;;;;;;;-5.21;76.53;101028.17;133685;1301;22518;-81
2023/03/02 04:48:56;;;;;;;;;;;;;;;-5.21;76.31;101028.19;133691;1300;23279;-82
2023/03/02 04:51:57;;;;;;;;;;;;;;;-5.24;76.08;101030.16;133656;1300;23250;-82
2023/03/02 04:54:57;;;;;;;;;;;;;;;-5.32;75.74;101035.05;133698;1300;22497;-82
2023/03/02 04:57:57;;;;;;;;;;;;;;;-5.45;75.95;101029.36;133671;1300;22508;-81
2023/03/02 05:01:01;;;;;;;;;;;;;;;-5.50;76.01;101025.38;133687;1300;22535;-82
2023/03/02 05:04:01;;;;;;;;;;;;;;;-5.55;76.08;101025.17;133719;1300;22481;-82
2023/03/02 05:07:02;;;;;;;;;;;;;;;-5.59;76.19;101025.98;133730;1300;22487;-82
2023/03/02 05:10:02;;;;;;;;;;;;;;;-5.62;76.33;101030.54;133683;1300;22590;-79
2023/03/02 05:13:04;;;;;;;;;;;;;;;-5.64;76.22;101029.73;133651;1300;22534;-81
2023/03/02 05:16:05;;;;;;;;;;;;;;;-5.64;76.21;101034.20;133691;1300;23128;-81
2023/03/02 05:19:07;;;;;;;;;;;;;;;-5.66;76.13;101034.95;133630;1300;23380;-82
2023/03/02 05:22:07;;;;;;;;;;;;;;;-5.68;76.02;101036.73;133664;1300;22475;-82
2023/03/02 05:25:08;;;;;;;;;;;;;;;-5.67;76.27;101040.85;133666;1301;22483;-82
2023/03/02 05:28:08;;;;;;;;;;;;;;;-5.67;76.60;101038.94;133733;1300;25313;-81
2023/03/02 05:31:11;;;;;;;;;;;;;;;-5.70;76.48;101036.44;133711;1300;23663;-82
2023/03/02 05:34:12;;;;;;;;;;;;;;;-5.72;76.56;101027.88;133689;1300;22534;-80
2023/03/02 05:37:12;;;;;;;;;;;;;;;-5.71;76.54;101032.15;133666;1300;22481;-83
2023/03/02 05:40:14;;;;;;;;;;;;;;;-5.69;76.66;101032.27;133689;1300;22940;-81
2023/03/02 05:43:17;;;;;;;;;;;;;;;-5.67;76.71;101035.32;133689;1300;22497;-69
2023/03/02 05:46:22;;;;;;;;;;;;;;;-5.62;76.70;101038.11;133402;1300;22481;-72
2023/03/02 05:49:22;;;;;;;;;;;;;;;-5.55;76.79;101038.09;133684;1300;22456;-70
2023/03/02 05:52:23;;;;;;;;;;;;;;;-5.42;76.98;101042.92;133388;1300;23212;-71
2023/03/02 05:55:23;;;;;;;;;;;;;;;-5.17;77.27;101046.19;133551;1300;23294;-72
2023/03/02 05:58:23;;;;;;;;;;;;;;;-4.90;77.32;101048.70;133685;1300;22496;-72
2023/03/02 06:01:24;;;;;;;;;;;;;;;-4.68;77.00;101053.89;133649;1300;22594;-72
2023/03/02 06:04:24;;;;;;;;;;;;;;;-4.40;76.85;101060.59;133570;1300;22559;-72
2023/03/02 06:07:26;;;;;;;;;;;;;;;-4.10;76.55;101062.58;133635;1300;22565;-76
2023/03/02 06:10:27;;;;;;;;;;;;;;;-3.74;76.89;101064.12;133592;1300;22698;-75
2023/03/02 06:13:27;;;;;;;;;;;;;;;-3.31;76.85;101060.02;133626;1300;23214;-76
2023/03/02 06:16:27;;;;;;;;;;;;;;;-2.89;76.73;101057.27;133662;1291;22483;-76
2023/03/02 06:19:28;;;;;;;;;;;;;;;-2.51;76.37;101063.25;133639;1300;23301;-76
2023/03/02 06:22:31;;;;;;;;;;;;;;;-2.13;75.93;101055.69;133608;1300;23192;-76
2023/03/02 06:25:31;;;;;;;;;;;;;;;-1.78;75.49;101055.40;133647;1301;22546;-76
2023/03/02 06:28:32;;;;;;;;;;;;;;;-1.37;75.55;101054.14;133694;1300;22488;-76
2023/03/02 06:31:33;;;;;;;;;;;;;;;-0.88;75.26;101055.29;133704;1300;22486;-75
2023/03/02 06:34:36;;;;;;;;;;;;;;;-0.51;74.87;101052.34;133702;1300;22537;-75
2023/03/02 06:37:36;;;;;;;;;;;;;;;-0.09;74.80;101050.98;133729;1289;22478;-74
2023/03/02 06:40:37;;;;;;;;;;;;;;;0.23;74.18;101052.52;133667;1305;22486;-74
2023/03/02 06:43:37;;;;;;;;;;;;;;;0.42;73.60;101051.52;133701;1300;22507;-74
2023/03/02 06:46:38;;;;;;;;;;;;;;;0.62;73.25;101051.73;133717;1300;22484;-74
2023/03/02 06:49:38;;;;;;;;;;;;;;;0.87;73.09;101047.46;133727;1300;22477;-74
2023/03/02 06:52:39;;;;;;;;;;;;;;;1.08;72.48;101050.33;133687;1300;22998;-74
2023/03/02 06:55:39;;;;;;;;;;;;;;;1.31;72.41;101052.20;133713;1300;22494;-74
2023/03/02 06:58:39;;;;;;;;;;;;;;;1.54;72.05;101050.73;133647;1301;22499;-73
2023/03/02 07:01:40;;;;;;;;;;;;;;;1.70;71.67;101056.11;133693;1300;22548;-74
2023/03/02 07:04:41;;;;;;;;;;;;;;;2.04;72.13;101054.70;133651;1302;22543;-74
2023/03/02 07:07:41;;;;;;;;;;;;;;;2.37;71.61;101055.02;133697;1300;22511;-73
2023/03/02 07:10:42;;;;;;;;;;;;;;;2.70;71.16;101049.02;133680;1300;22516;-73
2023/03/02 07:13:42;;;;;;;;;;;;;;;3.00;70.98;101049.15;133662;1300;22523;-73
2023/03/02 07:16:43;;;;;;;;;;;;;;;3.39;70.52;101044.20;133685;1300;22601;-73
2023/03/02 07:19:43;;;;;;;;;;;;;;;3.75;70.41;101044.34;133706;1300;22482;-73
2023/03/02 07:22:44;;;;;;;;;;;;;;;4.02;69.72;101045.86;133709;1300;22497;-73
2023/03/02 07:25:44;;;;;;;;;;;;;;;4.15;68.91;101041.33;133705;1300;22554;-73
2023/03/02 07:28:45;;;;;;;;;;;;;;;4.32;68.81;101043.00;133717;1300;22532;-73
2023/03/02 07:31:45;;;;;;;;;;;;;;;4.53;68.54;101045.42;133732;1300;22538;-73
2023/03/02 07:34:46;;;;;;;;;;;;;;;4.82;68.49;101042.00;133693;1300;22499;-73
2023/03/02 07:37:46;;;;;;;;;;;;;;;5.05;67.65;101039.15;133759;1300;22498;-73
2023/03/02 07:40:46;;;;;;;;;;;;;;;5.28;67.38;101041.58;133683;1300;22536;-73
2023/03/02 07:43:47;;;;;;;;;;;;;;;5.59;67.01;101040.55;133689;1300;22496;-73
2023/03/02 07:46:47;;;;;;;;;;;;;;;5.84;66.67;101038.55;133680;1305;22518;-73
2023/03/02 07:49:48;;;;;;;;;;;;;;;6.16;66.47;101035.30;133715;1300;22485;-72
2023/03/02 07:52:48;;;;;;;;;;;;;;;6.38;65.59;101034.55;133707;1300;22512;-73
2023/03/02 07:55:49;;;;;;;;;;;;;;;6.68;65.69;101036.05;133633;1300;115485;-73
2023/03/02 07:58:49;;;;;;;;;;;;;;;6.96;64.67;101035.79;133748;1300;22512;-73
2023/03/02 08:01:50;;;;;;;;;;;;;;;6.99;63.56;101037.17;133728;1300;22535;-73
2023/03/02 08:04:51;;;;;;;;;;;;;;;6.90;63.11;101038.59;133733;1300;24476;-73
2023/03/02 08:07:53;;;;;;;;;;;;;;;6.91;63.36;101035.14;133700;1300;22473;-73
2023/03/02 08:10:54;;;;;;;;;;;;;;;7.08;63.27;101029.92;133737;1300;22491;-72
2023/03/02 08:13:54;;;;;;;;;;;;;;;7.35;63.01;101029.04;133735;1307;24625;-72
2023/03/02 08:16:58;;;;;;;;;;;;;;;7.63;62.72;101027.13;133739;1300;24153;-73
2023/03/02 08:19:58;;;;;;;;;;;;;;;7.82;62.21;101027.44;133565;1303;23137;-72
2023/03/02 08:22:58;;;;;;;;;;;;;;;8.03;62.07;101028.91;133709;1300;22503;-72
2023/03/02 08:25:59;;;;;;;;;;;;;;;8.15;61.33;101029.98;133716;1300;22471;-72
2023/03/02 08:28:59;;;;;;;;;;;;;;;8.29;60.72;101034.51;133781;1300;22540;-71
2023/03/02 08:32:00;;;;;;;;;;;;;;;8.43;60.35;101033.11;133699;1300;22526;-71
2023/03/02 08:35:04;;;;;;;;;;;;;;;8.69;60.26;101031.11;133746;1300;22707;-71
2023/03/02 08:38:07;;;;;;;;;;;;;;;8.87;59.90;101031.08;133706;1300;22501;-73
2023/03/02 08:41:10;;;;;;;;;;;;;;;8.98;59.30;101025.93;133747;1300;22584;-72
2023/03/02 08:44:16;;;;;;;;;;;;;;;9.09;59.10;101023.05;133720;1300;23207;-71
2023/03/02 08:47:19;;;;;;;;;;;;;;;8.99;58.48;101019.14;133696;1300;23382;-71
2023/03/02 08:50:20;;;;;;;;;;;;;;;8.90;57.83;101019.04;133701;1305;22462;-71
2023/03/02 08:53:23;;;;;;;;;;;;;;;8.92;58.14;101018.70;133686;1300;23462;-71
2023/03/02 08:56:28;;;;;;;;;;;;;;;9.07;58.18;101015.77;133737;1300;23385;-71
2023/03/02 08:59:29;;;;;;;;;;;;;;;9.21;57.52;101017.91;133721;1308;22472;-71
2023/03/02 09:02:34;;;;;;;;;;;;;;;9.32;57.19;101013.38;133707;1300;22475;-72
2023/03/02 09:05:37;;;;;;;;;;;;;;;9.52;57.13;101012.67;133717;1300;22499;-70
2023/03/02 09:08:38;;;;;;;;;;;;;;;9.60;56.42;101008.23;133705;1300;22493;-71
2023/03/02 09:11:41;;;;;;;;;;;;;;;9.65;55.94;101012.91;133702;1304;23318;-70
2023/03/02 09:14:41;;;;;;;;;;;;;;;9.66;54.50;101011.73;133689;1300;22521;-71
2023/03/02 09:17:44;;;;;;;;;;;;;;;9.63;54.41;101005.17;133677;1299;22492;-71
2023/03/02 09:20:51;;;;;;;;;;;;;;;9.77;54.64;101004.95;133722;1306;22586;-72
2023/03/02 09:23:54;;;;;;;;;;;;;;;10.02;54.83;100998.58;133673;1300;22489;-71
2023/03/02 09:26:54;;;;;;;;;;;;;;;10.33;54.11;100990.77;133469;1303;22502;-70
2023/03/02 09:29:57;;;;;;;;;;;;;;;10.56;53.67;100988.76;133733;1300;22594;-71
2023/03/02 09:32:57;;;;;;;;;;;;;;;10.81;53.03;100985.70;133733;1300;22603;-70
2023/03/02 09:36:00;;;;;;;;;;;;;;;10.94;52.99;100988.73;133740;1300;22488;-71
2023/03/02 09:39:07;;;;;;;;;;;;;;;11.15;52.61;100984.30;133775;1300;22483;-71
2023/03/02 09:42:07;;;;;;;;;;;;;;;11.13;51.97;100985.41;133749;1300;22695;-70
2023/03/02 09:45:23;;;;;;;;;;;;;;;11.16;51.71;100985.49;133732;1300;22491;-71
2023/03/02 09:48:42;;;;;;;;;;;;;;;11.18;51.44;100980.34;133731;1306;22479;-71
2023/03/02 09:52:01;;;;;;;;;;;;;;;11.03;50.77;100976.85;133724;1300;22495;-71
2023/03/02 09:55:11;;;;;;;;;;;;;;;10.86;50.83;100971.80;133715;1300;22494;-71
2023/03/02 09:58:16;;;;;;;;;;;;;;;10.77;50.48;100979.20;133747;1300;22516;-71
2023/03/02 10:01:27;;;;;;;;;;;;;;;10.62;50.30;100977.41;133707;1300;22593;-71
2023/03/02 10:04:30;;;;;;;;;;;;;;;10.64;50.49;100979.00;133738;1300;22477;-71
2023/03/02 10:07:32;;;;;;;;;;;;;;;10.60;50.30;100974.96;133736;1300;22570;-71
2023/03/02 10:10:32;;;;;;;;;;;;;;;10.59;50.45;100970.95;133704;1300;22551;-71
2023/03/02 10:13:36;;;;;;;;;;;;;;;10.87;50.53;100971.45;133731;1300;22467;-71
2023/03/02 10:16:54;;;;;;;;;;;;;;;11.12;50.14;100967.79;133690;1300;22501;-71
2023/03/02 10:20:15;;;;;;;;;;;;;;;11.14;50.03;100969.55;133722;1300;23330;-71
2023/03/02 10:23:25;;;;;;;;;;;;;;;11.14;49.98;100967.14;133724;1300;22524;-71
2023/03/02 10:26:28;;;;;;;;;;;;;;;11.06;49.50;100966.07;133727;1300;23210;-71
2023/03/02 10:29:34;;;;;;;;;;;;;;;10.92;49.51;100963.98;133723;1300;22510;-71
2023/03/02 10:32:36;;;;;;;;;;;;;;;10.82;48.94;100960.08;133728;1300;22521;-71
2023/03/02 10:35:37;;;;;;;;;;;;;;;10.64;49.34;100956.73;133777;1300;22590;-70
2023/03/02 10:38:37;;;;;;;;;;;;;;;10.68;49.08;100950.85;133719;1306;22617;-70
2023/03/02 10:41:42;;;;;;;;;;;;;;;10.47;48.77;100950.56;133723;1300;22689;-71
2023/03/02 10:44:47;;;;;;;;;;;;;;;10.48;49.22;100946.75;133685;1300;23287;-71
2023/03/02 10:47:58;;;;;;;;;;;;;;;10.51;48.90;100942.75;133745;1300;22547;-71
2023/03/02 10:51:01;;;;;;;;;;;;;;;10.50;49.24;100938.91;133727;1306;22505;-71
2023/03/02 10:54:12;;;;;;;;;;;;;;;10.65;49.48;100935.69;133728;1301;22476;-71
2023/03/02 10:57:32;;;;;;;;;;;;;;;10.74;49.39;100934.86;133740;1300;22488;-71
2023/03/02 11:00:33;;;;;;;;;;;;;;;10.71;49.03;100932.14;133697;1300;22601;-71
2023/03/02 11:03:33;;;;;;;;;;;;;;;10.60;48.92;100928.27;133749;1300;22480;-71
2023/03/02 11:06:34;;;;;;;;;;;;;;;10.61;49.28;100926.78;133733;1307;23208;-71
2023/03/02 11:09:37;;;;;;;;;;;;;;;10.75;49.33;100919.58;133720;1300;22475;-70
2023/03/02 11:12:44;;;;;;;;;;;;;;;10.85;49.33;100916.95;133754;1300;22506;-71
2023/03/02 11:15:44;;;;;;;;;;;;;;;10.99;49.21;100914.04;133746;1300;23117;-70
2023/03/02 11:18:59;;;;;;;;;;;;;;;10.94;48.59;100909.60;133718;1300;22517;-71
2023/03/02 11:22:11;;;;;;;;;;;;;;;10.54;48.31;100905.99;133723;1303;23252;-70
2023/03/02 11:25:20;;;;;;;;;;;;;;;10.21;48.47;100900.27;133771;1300;22502;-71
2023/03/02 11:28:42;;;;;;;;;;;;;;;9.95;48.72;100892.82;133770;1300;22481;-71
2023/03/02 11:31:47;;;;;;;;;;;;;;;9.83;48.67;100893.91;133540;1301;22572;-70
2023/03/02 11:34:50;;;;;;;;;;;;;;;9.59;48.36;100893.00;133779;1300;23260;-70
2023/03/02 11:37:52;;;;;;;;;;;;;;;9.40;48.80;100894.02;133747;1300;23164;-71
2023/03/02 11:41:12;;;;;;;;;;;;;;;9.27;48.65;100891.72;133752;1300;23138;-70
2023/03/02 11:44:14;;;;;;;;;;;;;;;9.09;48.98;100882.58;133763;1293;22470;-70
2023/03/02 11:47:16;;;;;;;;;;;;;;;9.30;49.64;100888.20;133767;1300;23215;-71
2023/03/02 11:50:19;;;;;;;;;;;;;;;9.36;49.39;100878.63;133741;1300;22488;-70
2023/03/02 11:53:20;;;;;;;;;;;;;;;9.22;49.23;100875.91;133745;1300;23454;-71
2023/03/02 11:56:24;;;;;;;;;;;;;;;9.16;49.22;100871.52;133756;1300;22492;-71
2023/03/02 11:59:25;;;;;;;;;;;;;;;9.11;49.53;100864.92;133757;1300;22478;-71
2023/03/02 12:02:26;;;;;;;;;;;;;;;9.17;49.61;100863.97;133764;1300;23273;-71
2023/03/02 12:05:27;;;;;;;;;;;;;;;9.14;49.59;100858.96;133728;1300;22539;-71
2023/03/02 12:08:39;;;;;;;;;;;;;;;9.06;49.41;100856.70;133763;1300;23012;-71
2023/03/02 12:11:40;;;;;;;;;;;;;;;9.13;49.75;100846.50;133813;1300;22477;-71
2023/03/02 12:14:42;;;;;;;;;;;;;;;9.35;50.68;100844.70;133719;1300;23687;-73
2023/03/02 12:17:44;;;;;;;;;;;;;;;9.41;50.02;100838.64;133753;1300;22486;-71
2023/03/02 12:20:56;;;;;;;;;;;;;;;9.33;49.36;100838.52;133686;1300;22545;-71
2023/03/02 12:23:59;;;;;;;;;;;;;;;9.33;49.14;100830.73;133711;1300;22487;-71
2023/03/02 12:27:08;;;;;;;;;;;;;;;9.05;49.29;100828.52;133715;1300;22505;-72
2023/03/02 12:30:14;;;;;;;;;;;;;;;8.86;49.59;100825.18;133689;1300;23341;-72
2023/03/02 12:33:21;;;;;;;;;;;;;;;8.88;49.94;100824.09;133717;1300;22505;-71
2023/03/02 12:36:38;;;;;;;;;;;;;;;8.93;49.88;100820.77;133739;1300;22516;-71
2023/03/02 12:39:41;;;;;;;;;;;;;;;8.74;49.84;100820.76;133769;1300;22454;-72
2023/03/02 12:42:48;;;;;;;;;;;;;;;8.54;50.20;100821.15;133743;1301;22505;-71
2023/03/02 12:46:07;;;;;;;;;;;;;;;8.37;50.51;100818.72;133761;1300;22473;-72
2023/03/02 12:49:17;;;;;;;;;;;;;;;8.36;50.71;100811.91;133739;1300;22510;-71
2023/03/02 12:52:25;;;;;;;;;;;;;;;8.26;50.83;100812.08;133756;1301;22521;-71
2023/03/02 12:55:26;;;;;;;;;;;;;;;8.13;51.20;100811.49;133732;1300;23088;-71
2023/03/02 12:58:27;;;;;;;;;;;;;;;8.18;51.37;100805.75;133761;1300;22492;-71
2023/03/02 13:01:33;;;;;;;;;;;;;;;8.17;51.26;100805.16;133785;1295;22486;-72
2023/03/02 13:04:33;;;;;;;;;;;;;;;8.12;51.60;100802.05;133745;1300;22471;-71
2023/03/02 13:07:36;;;;;;;;;;;;;;;8.09;51.76;100797.87;133739;1302;22801;-71
2023/03/02 13:10:39;;;;;;;;;;;;;;;7.95;51.42;100797.69;133759;1300;23124;-71
2023/03/02 13:13:43;;;;;;;;;;;;;;;7.92;52.02;100794.27;133769;1300;22538;-71
2023/03/02 13:16:57;;;;;;;;;;;;;;;8.02;52.09;100787.19;133759;1300;22513;-71
2023/03/02 13:19:59;;;;;;;;;;;;;;;8.04;52.31;100781.75;133713;1300;22505;-71
2023/03/02 13:23:00;;;;;;;;;;;;;;;8.12;52.49;100776.15;133728;1300;23567;-71
2023/03/02 13:26:01;;;;;;;;;;;;;;;8.15;52.51;100772.54;133716;1300;22533;-71
2023/03/02 13:29:19;;;;;;;;;;;;;;;8.05;52.23;100772.36;133726;1300;22501;-70
2023/03/02 13:32:34;;;;;;;;;;;;;;;7.90;52.13;100771.52;133799;1300;23142;-72
2023/03/02 13:35:36;;;;;;;;;;;;;;;7.85;52.44;100761.77;133773;1300;22478;-74
2023/03/02 13:38:37;;;;;;;;;;;;;;;7.88;52.30;100759.23;133706;1300;22530;-74
2023/03/02 13:41:40;;;;;;;;;;;;;;;7.88;52.28;100754.06;133677;1300;23309;-74
2023/03/02 13:44:45;;;;;;;;;;;;;;;7.98;52.32;100751.48;133681;1300;22474;-74
2023/03/02 13:47:45;;;;;;;;;;;;;;;8.03;52.31;100744.13;133758;1300;22529;-74
2023/03/02 13:51:09;;;;;;;;;;;;;;;8.06;52.21;100743.17;133717;1297;22500;-74
2023/03/02 13:54:14;;;;;;;;;;;;;;;7.94;52.42;100743.38;133596;1300;24547;-74
2023/03/02 13:57:17;;;;;;;;;;;;;;;7.88;52.43;100738.44;133709;1300;23187;-74
2023/03/02 14:00:25;;;;;;;;;;;;;;;7.91;52.68;100736.22;133751;1300;22497;-74
2023/03/02 14:03:28;;;;;;;;;;;;;;;8.02;52.68;100734.89;133752;1300;22519;-74
2023/03/02 14:06:30;;;;;;;;;;;;;;;8.13;53.03;100729.16;133743;1300;22497;-73
2023/03/02 14:09:31;;;;;;;;;;;;;;;8.22;52.91;100724.17;133751;1300;22558;-74
2023/03/02 14:12:33;;;;;;;;;;;;;;;8.11;52.77;100722.29;133380;1303;22618;-74
2023/03/02 14:15:39;;;;;;;;;;;;;;;8.06;53.18;100715.64;133599;1301;22716;-74
2023/03/02 14:18:51;;;;;;;;;;;;;;;7.98;52.96;100711.66;133705;1300;22503;-74
2023/03/02 14:21:57;;;;;;;;;;;;;;;7.94;53.38;100706.39;133741;1300;23619;-74
2023/03/02 14:24:57;;;;;;;;;;;;;;;7.92;53.49;100701.96;133500;1300;22509;-74
2023/03/02 14:27:58;;;;;;;;;;;;;;;7.84;53.25;100693.52;133694;1300;22500;-75
2023/03/02 14:30:58;;;;;;;;;;;;;;;7.77;53.56;100687.40;133734;1300;22503;-74
2023/03/02 14:33:59;;;;;;;;;;;;;;;7.76;53.55;100685.45;133717;1300;22504;-75
2023/03/02 14:37:02;;;;;;;;;;;;;;;7.71;53.67;100676.00;133713;1301;22573;-74
2023/03/02 14:40:06;;;;;;;;;;;;;;;7.72;53.60;100672.73;133721;1300;23267;-74
2023/03/02 14:43:08;;;;;;;;;;;;;;;7.69;53.41;100670.52;133517;1307;22482;-74
2023/03/02 14:46:08;;;;;;;;;;;;;;;7.63;53.63;100670.34;133762;1300;23230;-74
2023/03/02 14:49:09;;;;;;;;;;;;;;;7.60;53.82;100668.33;133704;1305;22489;-74
2023/03/02 14:52:22;;;;;;;;;;;;;;;7.57;53.91;100665.73;133676;1300;22593;-74
2023/03/02 14:55:24;;;;;;;;;;;;;;;7.59;53.93;100662.21;133639;1300;23288;-75
2023/03/02 14:58:32;;;;;;;;;;;;;;;7.58;54.11;100656.69;133688;1300;22591;-74
2023/03/02 15:01:32;;;;;;;;;;;;;;;7.52;54.23;100659.52;133565;1304;23580;-74
2023/03/02 15:04:35;;;;;;;;;;;;;;;7.43;54.30;100659.98;133680;1301;23294;-75
2023/03/02 15:07:37;;;;;;;;;;;;;;;7.34;54.33;100657.92;133739;1300;22489;-74
2023/03/02 15:10:41;;;;;;;;;;;;;;;7.30;54.52;100656.36;133713;1300;22475;-74
2023/03/02 15:13:41;;;;;;;;;;;;;;;7.24;54.45;100653.85;133745;1300;22489;-74
2023/03/02 15:16:41;;;;;;;;;;;;;;;7.14;54.60;100652.39;133709;1308;23333;-74
2023/03/02 15:19:42;;;;;;;;;;;;;;;7.09;54.71;100654.92;133724;1301;23347;-74
2023/03/02 15:22:42;;;;;;;;;;;;;;;7.06;54.91;100652.59;133755;1308;23229;-74
2023/03/02 15:25:43;;;;;;;;;;;;;;;7.08;55.04;100655.15;133727;1297;22461;-74
2023/03/02 15:28:46;;;;;;;;;;;;;;;7.09;55.07;100654.43;133774;1300;22470;-74
2023/03/02 15:31:47;;;;;;;;;;;;;;;7.04;54.90;100658.19;133701;1300;23175;-74